Time;durP1;ratioP1;P1;durP2;ratioP2;P2;SDS_P1;SDS_P2;PMS_P1;PMS_P2;Temp;Humidity;BMP_temperature;BMP_pressure;BME280_temperature;BME280_humidity;BME280_pressure;Samples;Min_cycle;Max_cycle;Signal;HPM_P1;HPM_P2
2023/07/21 00:00:00;;;;;;;1.25;0.77;;;;;;;15.62;79.19;100531.53;5016695;28;20584;-80
2023/07/21 00:02:26;;;;;;;1.17;1.10;;;;;;;15.54;79.46;100527.38;5022795;28;20051;-80
2023/07/21 00:04:53;;;;;;;1.88;0.77;;;;;;;15.54;79.54;100530.00;5028548;28;20033;-79
2023/07/21 00:07:20;;;;;;;1.63;1.10;;;;;;;15.53;80.03;100522.13;4999770;28;20037;-81
2023/07/21 00:09:46;;;;;;;1.77;1.35;;;;;;;15.51;79.92;100521.31;5016521;28;20068;-79
2023/07/21 00:12:13;;;;;;;1.02;0.98;;;;;;;15.50;80.16;100519.59;5042478;28;20046;-86
2023/07/21 00:14:39;;;;;;;1.20;0.85;;;;;;;15.52;79.70;100512.50;5026362;28;20041;-80
2023/07/21 00:17:30;;;;;;;1.52;1.33;;;;;;;15.57;79.85;100513.22;5035031;28;20041;-80
2023/07/21 00:20:21;;;;;;;2.53;0.80;;;;;;;15.60;79.41;100512.25;5024521;28;20049;-80
2023/07/21 00:22:48;;;;;;;1.75;1.15;;;;;;;15.63;79.07;100512.16;5020320;28;20076;-80
2023/07/21 00:25:15;;;;;;;1.85;1.20;;;;;;;15.66;79.12;100509.44;5023181;28;20037;-79
2023/07/21 00:27:45;;;;;;;3.08;0.90;;;;;;;15.70;78.50;100505.78;5027303;28;20583;-81
2023/07/21 00:30:13;;;;;;;0.73;0.73;;;;;;;15.74;78.61;100503.91;5020129;28;20092;-80
2023/07/21 00:32:42;;;;;;;1.73;0.98;;;;;;;15.77;78.25;100502.00;5018314;28;20365;-80
2023/07/21 00:35:10;;;;;;;1.60;0.88;;;;;;;15.80;78.27;100503.66;5016092;28;20044;-80
2023/07/21 00:37:37;;;;;;;3.28;0.60;;;;;;;15.80;78.25;100496.63;5016144;28;20049;-80
2023/07/21 00:40:09;;;;;;;0.80;0.80;;;;;;;15.84;78.10;100500.06;5016101;28;20095;-80
2023/07/21 00:42:37;;;;;;;2.33;0.90;;;;;;;15.85;77.61;100492.09;5033701;28;20092;-80
2023/07/21 00:45:04;;;;;;;2.40;0.68;;;;;;;15.80;77.09;100498.41;5015871;28;20490;-78
2023/07/21 00:47:32;;;;;;;2.90;0.70;;;;;;;15.77;77.38;100493.22;5023648;28;20053;-81
2023/07/21 00:50:00;;;;;;;1.65;0.80;;;;;;;15.74;77.34;100491.56;5016829;28;20045;-81
2023/07/21 00:52:28;;;;;;;1.02;0.93;;;;;;;15.73;77.21;100492.47;5032107;28;20042;-80
2023/07/21 00:54:54;;;;;;;2.75;0.93;;;;;;;15.64;77.62;100490.97;5015929;28;20140;-80
2023/07/21 00:57:22;;;;;;;2.78;1.15;;;;;;;15.59;78.35;100492.06;5000218;28;20538;-79
2023/07/21 00:59:49;;;;;;;1.92;1.13;;;;;;;15.59;79.22;100497.31;5018170;28;20033;-79
2023/07/21 01:02:16;;;;;;;1.65;0.80;;;;;;;15.58;80.69;100493.84;5019142;28;20087;-80
2023/07/21 01:04:44;;;;;;;1.33;0.60;;;;;;;15.61;79.95;100492.88;5033302;28;20045;-79
2023/07/21 01:07:11;;;;;;;0.85;0.85;;;;;;;15.61;80.19;100496.38;5026939;28;20037;-80
2023/07/21 01:09:40;;;;;;;1.00;0.90;;;;;;;15.61;79.96;100499.00;5018516;28;20044;-79
2023/07/21 01:12:08;;;;;;;2.72;0.70;;;;;;;15.60;80.07;100493.78;4999630;28;20140;-79
2023/07/21 01:14:37;;;;;;;1.52;1.05;;;;;;;15.60;80.62;100499.06;5016401;28;20133;-80
2023/07/21 01:17:07;;;;;;;1.10;0.75;;;;;;;15.56;80.69;100506.19;4999972;28;20120;-82
2023/07/21 01:19:36;;;;;;;0.90;0.90;;;;;;;15.51;80.77;100508.13;5015873;28;20033;-81
2023/07/21 01:22:24;;;;;;;2.03;1.00;;;;;;;15.43;80.98;100516.28;5024477;28;20061;-79
2023/07/21 01:24:55;;;;;;;1.58;1.20;;;;;;;15.31;83.86;100517.53;5014621;28;20472;-81
2023/07/21 01:27:25;;;;;;;1.65;1.15;;;;;;;15.17;85.62;100510.03;5032354;28;20052;-81
2023/07/21 01:29:56;;;;;;;2.28;0.70;;;;;;;15.04;86.58;100508.69;5031922;28;20048;-81
2023/07/21 01:32:26;;;;;;;1.10;1.00;;;;;;;14.88;87.45;100510.91;5034132;28;20045;-81
2023/07/21 01:34:54;;;;;;;3.03;1.17;;;;;;;14.87;89.69;100507.44;5015656;28;20046;-81
2023/07/21 01:37:23;;;;;;;1.80;1.13;;;;;;;14.91;90.21;100496.78;5017367;28;20136;-81
2023/07/21 01:40:15;;;;;;;0.93;0.93;;;;;;;14.95;90.28;100504.53;5048466;28;20048;-81
2023/07/21 01:42:47;;;;;;;0.70;0.70;;;;;;;14.98;90.53;100504.47;5035508;28;20041;-80
2023/07/21 01:45:15;;;;;;;2.80;1.77;;;;;;;14.98;91.20;100501.81;5035380;28;20045;-82
2023/07/21 01:47:45;;;;;;;1.67;1.48;;;;;;;14.99;92.75;100510.59;5018507;28;20468;-80
2023/07/21 01:50:15;;;;;;;2.00;1.30;;;;;;;14.99;93.17;100500.03;5014394;28;20053;-80
2023/07/21 01:52:45;;;;;;;5.30;1.42;;;;;;;14.95;94.31;100501.03;5026831;28;20616;-80
2023/07/21 01:55:33;;;;;;;1.25;1.10;;;;;;;14.95;94.46;100506.31;5028702;28;20375;-80
2023/07/21 01:58:06;;;;;;;1.63;1.17;;;;;;;14.97;94.68;100500.09;5031889;28;20772;-80
2023/07/21 02:00:36;;;;;;;1.52;1.13;;;;;;;14.96;95.34;100500.16;5034710;28;20065;-81
2023/07/21 02:03:05;;;;;;;2.00;1.15;;;;;;;14.92;94.67;100509.91;5018162;28;20041;-80
2023/07/21 02:05:31;;;;;;;4.13;1.42;;;;;;;14.95;96.12;100507.16;5017920;28;20045;-79
2023/07/21 02:07:58;;;;;;;2.30;1.65;;;;;;;14.97;96.64;100509.78;5035019;28;20068;-79
2023/07/21 02:10:24;;;;;;;1.55;1.45;;;;;;;14.97;96.90;100510.63;5031436;28;20045;-80
2023/07/21 02:12:51;;;;;;;1.83;1.30;;;;;;;14.95;96.68;100512.44;5021924;28;20044;-81
2023/07/21 02:15:18;;;;;;;1.48;1.17;;;;;;;14.91;98.00;100509.97;5035056;28;20049;-80
2023/07/21 02:17:45;;;;;;;2.90;1.80;;;;;;;14.86;99.69;100512.72;5034261;28;20048;-80
2023/07/21 02:20:11;;;;;;;1.80;1.70;;;;;;;14.76;100.00;100508.63;5017968;28;20403;-80
2023/07/21 02:22:40;;;;;;;4.20;1.65;;;;;;;14.61;100.00;100508.09;5051493;28;20084;-80
2023/07/21 02:25:09;;;;;;;4.22;1.65;;;;;;;14.48;100.00;100506.72;5048809;28;20356;-78
2023/07/21 02:27:36;;;;;;;2.72;2.08;;;;;;;14.38;100.00;100506.13;5056722;28;20060;-79
2023/07/21 02:30:04;;;;;;;4.63;2.67;;;;;;;14.27;100.00;100500.28;5037248;28;20045;-79
2023/07/21 02:32:31;;;;;;;4.38;2.55;;;;;;;14.13;100.00;100496.25;5017245;28;20045;-80
2023/07/21 02:34:57;;;;;;;4.70;2.20;;;;;;;14.05;100.00;100491.19;5037063;28;20040;-81
2023/07/21 02:37:24;;;;;;;2.97;2.55;;;;;;;14.04;100.00;100488.56;5040650;28;20048;-81
2023/07/21 02:39:51;;;;;;;4.93;2.75;;;;;;;14.09;100.00;100480.56;5040986;28;20676;-81
2023/07/21 02:42:18;;;;;;;2.88;2.50;;;;;;;14.10;100.00;100487.56;5032819;28;20658;-82
2023/07/21 02:44:45;;;;;;;4.65;2.47;;;;;;;14.11;100.00;100477.00;5034265;28;20116;-80
2023/07/21 02:47:16;;;;;;;7.40;3.05;;;;;;;14.14;100.00;100469.00;5042097;28;20033;-84
2023/07/21 02:49:44;;;;;;;3.00;2.70;;;;;;;14.16;100.00;100466.34;5035951;28;20041;-80
2023/07/21 02:52:11;;;;;;;4.45;2.72;;;;;;;14.16;100.00;100469.84;5049547;28;20047;-81
2023/07/21 02:54:37;;;;;;;7.38;2.83;;;;;;;14.18;100.00;100464.53;5042222;28;20064;-80
2023/07/21 02:57:04;;;;;;;3.22;2.42;;;;;;;14.23;100.00;100463.50;5040277;28;20040;-80
2023/07/21 02:59:31;;;;;;;5.18;3.55;;;;;;;14.26;100.00;100459.91;5019961;28;20049;-80
2023/07/21 03:01:59;;;;;;;5.93;3.20;;;;;;;14.22;100.00;100464.41;5052215;28;20033;-83
2023/07/21 03:04:26;;;;;;;7.18;3.50;;;;;;;14.20;100.00;100453.06;5059904;28;20068;-80
2023/07/21 03:06:53;;;;;;;3.20;2.78;;;;;;;14.18;100.00;100456.63;5019981;28;20048;-82
2023/07/21 03:09:20;;;;;;;6.35;2.63;;;;;;;14.16;100.00;100451.41;5036300;28;20041;-80
2023/07/21 03:11:46;;;;;;;5.32;2.53;;;;;;;14.17;100.00;100452.25;5036244;28;20545;-81
2023/07/21 03:14:13;;;;;;;3.47;2.40;;;;;;;14.16;100.00;100443.53;5043163;28;20037;-80
2023/07/21 03:16:40;;;;;;;3.03;2.38;;;;;;;14.18;100.00;100444.34;5039292;28;20742;-83
2023/07/21 03:19:08;;;;;;;3.67;2.25;;;;;;;14.15;100.00;100440.94;5047472;28;20076;-83
2023/07/21 03:21:34;;;;;;;3.00;2.55;;;;;;;14.13;100.00;100442.72;5009650;28;20060;-82
2023/07/21 03:24:01;;;;;;;2.85;2.25;;;;;;;14.11;100.00;100441.94;5015591;28;20063;-81
2023/07/21 03:26:27;;;;;;;2.80;1.75;;;;;;;14.11;100.00;100434.03;5016922;28;20045;-79
2023/07/21 03:28:55;;;;;;;3.30;1.77;;;;;;;14.06;100.00;100434.13;5000174;28;20045;-81
2023/07/21 03:31:22;;;;;;;4.28;2.33;;;;;;;14.01;100.00;100430.75;5016768;28;20518;-81
2023/07/21 03:33:49;;;;;;;2.40;2.22;;;;;;;13.95;100.00;100428.28;5016375;28;20380;-81
2023/07/21 03:36:16;;;;;;;4.40;2.00;;;;;;;13.90;100.00;100429.28;5017061;28;20044;-80
2023/07/21 03:38:43;;;;;;;1.95;1.77;;;;;;;13.86;100.00;100425.00;5016419;28;20071;-79
2023/07/21 03:41:10;;;;;;;4.47;2.35;;;;;;;13.87;100.00;100421.47;5000323;28;20037;-83
2023/07/21 03:43:37;;;;;;;3.38;1.95;;;;;;;13.88;100.00;100422.31;5016553;28;20034;-81
2023/07/21 03:46:07;;;;;;;3.70;2.33;;;;;;;13.91;100.00;100417.00;5016620;28;20045;-79
2023/07/21 03:48:35;;;;;;;2.78;2.38;;;;;;;13.92;100.00;100410.81;4999747;28;20544;-80
2023/07/21 03:51:06;;;;;;;6.88;2.20;;;;;;;13.95;100.00;100409.88;5001182;28;20042;-80
2023/07/21 03:53:33;;;;;;;2.10;2.00;;;;;;;13.98;100.00;100410.66;5021898;28;20120;-81
2023/07/21 03:55:59;;;;;;;3.70;2.15;;;;;;;13.99;100.00;100409.75;4999732;28;20444;-81
2023/07/21 03:58:26;;;;;;;3.47;2.10;;;;;;;14.03;100.00;100416.66;5031692;28;20046;-80
2023/07/21 04:00:55;;;;;;;3.70;2.10;;;;;;;14.09;100.00;100418.25;5001613;28;20048;-82
2023/07/21 04:03:24;;;;;;;2.55;2.35;;;;;;;14.15;100.00;100419.88;4999406;28;20049;-80
2023/07/21 04:05:54;;;;;;;3.20;2.25;;;;;;;14.21;100.00;100407.41;5016484;28;20052;-81
2023/07/21 04:08:21;;;;;;;1.85;1.63;;;;;;;14.27;100.00;100402.88;5021411;28;20061;-82
2023/07/21 04:10:47;;;;;;;2.38;1.80;;;;;;;14.28;100.00;100397.56;5014998;28;20037;-85
2023/07/21 04:13:14;;;;;;;4.65;2.30;;;;;;;14.31;100.00;100410.63;5028693;28;20072;-80
2023/07/21 04:15:40;;;;;;;3.85;2.17;;;;;;;14.32;100.00;100401.81;5007347;28;20064;-81
2023/07/21 04:18:07;;;;;;;4.03;2.13;;;;;;;14.36;100.00;100399.97;5015144;28;20041;-79
2023/07/21 04:20:33;;;;;;;2.30;1.67;;;;;;;14.38;100.00;100398.16;5015357;28;20124;-79
2023/07/21 04:23:00;;;;;;;1.70;1.60;;;;;;;14.39;100.00;100402.50;5021808;28;20053;-91
2023/07/21 04:25:27;;;;;;;4.47;2.00;;;;;;;14.34;100.00;100399.13;5041543;28;20631;-84
2023/07/21 04:27:55;;;;;;;5.10;2.00;;;;;;;14.27;100.00;100394.97;5030549;28;20045;-82
2023/07/21 04:30:22;;;;;;;4.82;1.92;;;;;;;14.15;100.00;100404.94;5025574;28;20038;-81
2023/07/21 04:32:48;;;;;;;3.38;2.47;;;;;;;14.05;100.00;100408.72;5031916;28;20100;-81
2023/07/21 04:35:16;;;;;;;2.40;1.90;;;;;;;13.98;100.00;100404.53;5032677;28;20099;-84
2023/07/21 04:37:42;;;;;;;3.85;2.40;;;;;;;13.94;100.00;100392.38;5032006;28;20080;-81
2023/07/21 04:40:10;;;;;;;3.25;1.95;;;;;;;13.90;100.00;100391.59;5020126;28;20049;-81
2023/07/21 04:42:37;;;;;;;2.53;2.30;;;;;;;13.89;100.00;100392.50;5018591;28;20045;-81
2023/07/21 04:45:04;;;;;;;3.53;2.75;;;;;;;13.89;100.00;100392.50;5031969;28;20116;-80
2023/07/21 04:47:30;;;;;;;3.65;2.47;;;;;;;13.84;100.00;100395.22;5032821;28;20044;-81
2023/07/21 04:49:57;;;;;;;4.00;2.40;;;;;;;13.86;100.00;100396.06;5032086;28;20534;-81
2023/07/21 04:52:24;;;;;;;7.63;2.97;;;;;;;13.92;100.00;100396.81;5032122;28;20115;-81
2023/07/21 04:54:50;;;;;;;4.30;2.55;;;;;;;13.92;100.00;100394.19;5032669;28;20038;-81
2023/07/21 04:57:17;;;;;;;6.40;3.22;;;;;;;13.92;100.00;100389.75;5014965;28;20046;-81
2023/07/21 04:59:44;;;;;;;7.93;3.30;;;;;;;13.96;100.00;100394.06;5032028;28;20120;-81
2023/07/21 05:02:10;;;;;;;5.97;2.70;;;;;;;14.01;100.00;100388.66;5015400;28;20133;-80
2023/07/21 05:04:37;;;;;;;5.20;3.05;;;;;;;14.10;100.00;100384.91;5031405;28;20042;-80
2023/07/21 05:07:05;;;;;;;6.70;3.15;;;;;;;14.21;100.00;100377.59;5033177;28;20041;-82
2023/07/21 05:09:32;;;;;;;3.25;2.53;;;;;;;14.35;100.00;100382.44;5018814;28;20057;-82
2023/07/21 05:11:59;;;;;;;4.45;2.53;;;;;;;14.44;100.00;100381.31;5019460;28;20049;-81
2023/07/21 05:14:26;;;;;;;3.65;3.35;;;;;;;14.52;100.00;100380.19;5056172;28;20041;-81
2023/07/21 05:16:52;;;;;;;4.30;3.55;;;;;;;14.53;100.00;100378.41;5043894;28;20045;-80
2023/07/21 05:19:19;;;;;;;3.60;2.75;;;;;;;14.60;100.00;100379.09;5003591;28;20052;-81
2023/07/21 05:21:46;;;;;;;3.55;2.50;;;;;;;14.72;100.00;100382.25;5027990;28;20053;-81
2023/07/21 05:24:13;;;;;;;3.83;2.58;;;;;;;14.82;100.00;100384.59;5062813;28;20058;-80
2023/07/21 05:26:39;;;;;;;2.42;2.22;;;;;;;14.88;100.00;100387.03;5032605;28;20049;-80
2023/07/21 05:29:06;;;;;;;5.85;2.15;;;;;;;15.01;100.00;100391.00;5015800;28;20076;-79
2023/07/21 05:31:33;;;;;;;5.32;3.30;;;;;;;15.12;100.00;100390.69;5022679;28;20124;-80
2023/07/21 05:34:00;;;;;;;3.00;2.35;;;;;;;15.18;100.00;100392.25;5035355;28;20045;-79
2023/07/21 05:36:27;;;;;;;5.53;2.95;;;;;;;15.21;100.00;100384.22;5037231;28;20041;-79
2023/07/21 05:38:54;;;;;;;3.30;2.78;;;;;;;15.16;98.74;100383.53;5015579;28;20061;-80
2023/07/21 05:41:22;;;;;;;5.32;2.50;;;;;;;15.21;98.78;100393.03;5015891;28;20074;-79
2023/07/21 05:43:48;;;;;;;3.33;2.00;;;;;;;15.25;98.68;100388.50;5030524;28;20041;-79
2023/07/21 05:46:15;;;;;;;2.97;2.60;;;;;;;15.15;97.76;100395.84;5035101;28;20145;-81
2023/07/21 05:48:41;;;;;;;6.50;3.05;;;;;;;15.09;98.75;100398.69;5018527;28;20128;-80
2023/07/21 05:51:13;;;;;;;6.60;3.35;;;;;;;15.11;98.86;100395.97;5036489;28;20044;-79
2023/07/21 05:53:39;;;;;;;2.47;2.25;;;;;;;15.07;98.51;100402.28;5018298;28;20041;-80
2023/07/21 05:56:07;;;;;;;7.15;2.28;;;;;;;15.05;98.46;100404.97;5035397;28;20041;-80
2023/07/21 05:58:35;;;;;;;2.40;2.20;;;;;;;15.12;97.95;100403.00;5034701;28;20065;-82
2023/07/21 06:01:02;;;;;;;3.28;2.45;;;;;;;15.05;97.66;100403.19;5060588;28;20041;-79
2023/07/21 06:03:28;;;;;;;4.47;2.55;;;;;;;15.12;97.58;100403.88;5055229;28;20044;-79
2023/07/21 06:05:55;;;;;;;2.63;2.35;;;;;;;15.31;97.00;100396.22;5051759;28;20069;-80
2023/07/21 06:08:22;;;;;;;3.95;2.55;;;;;;;15.41;96.00;100401.19;5019013;28;20039;-80
2023/07/21 06:10:48;;;;;;;3.90;2.42;;;;;;;15.47;95.83;100398.34;5018947;28;20037;-81
2023/07/21 06:13:17;;;;;;;6.55;2.35;;;;;;;15.58;95.47;100398.84;5035153;28;20498;-83
2023/07/21 06:15:43;;;;;;;5.65;2.17;;;;;;;15.61;94.27;100395.25;5018987;28;20369;-81
2023/07/21 06:18:10;;;;;;;3.25;2.40;;;;;;;15.59;93.79;100397.94;5023581;28;20445;-82
2023/07/21 06:20:36;;;;;;;5.50;2.45;;;;;;;15.61;94.46;100396.09;5027849;28;20049;-80
2023/07/21 06:23:03;;;;;;;3.42;2.35;;;;;;;15.65;94.58;100391.59;5058623;28;20052;-80
2023/07/21 06:25:29;;;;;;;2.50;1.73;;;;;;;15.63;93.62;100388.13;5033438;28;20060;-79
2023/07/21 06:27:57;;;;;;;2.78;2.22;;;;;;;15.58;93.53;100382.16;5003848;28;20373;-79
2023/07/21 06:30:24;;;;;;;3.78;1.70;;;;;;;15.66;93.56;100388.03;5020501;28;20049;-80
2023/07/21 06:32:50;;;;;;;5.05;2.17;;;;;;;15.74;93.20;100385.13;5002208;28;20049;-80
2023/07/21 06:35:17;;;;;;;5.70;1.88;;;;;;;15.73;92.37;100381.63;4998329;28;20042;-80
2023/07/21 06:37:43;;;;;;;6.00;2.60;;;;;;;15.71;92.70;100380.84;4998125;28;20477;-79
2023/07/21 06:40:10;;;;;;;4.47;2.72;;;;;;;15.75;92.49;100378.94;5009416;28;20039;-81
2023/07/21 06:42:43;;;;;;;2.78;2.13;;;;;;;15.81;92.68;100384.03;5030315;28;20120;-81
2023/07/21 06:45:11;;;;;;;7.45;3.05;;;;;;;15.97;91.75;100372.03;5018586;28;20041;-82
2023/07/21 06:47:38;;;;;;;2.38;1.70;;;;;;;16.10;90.92;100377.72;5017478;28;20038;-81
2023/07/21 06:50:05;;;;;;;2.15;1.98;;;;;;;16.29;89.78;100374.41;5017623;28;20045;-83
2023/07/21 06:52:34;;;;;;;1.67;1.52;;;;;;;16.48;89.27;100364.84;5017445;28;20054;-82
2023/07/21 06:55:01;;;;;;;3.22;2.10;;;;;;;16.68;88.31;100371.16;5017670;28;20123;-81
2023/07/21 06:57:29;;;;;;;3.38;2.38;;;;;;;16.76;87.72;100355.84;5017686;28;20069;-81
2023/07/21 06:59:56;;;;;;;2.08;1.38;;;;;;;16.82;87.56;100360.91;5034093;28;20503;-82
2023/07/21 07:02:22;;;;;;;3.08;1.90;;;;;;;16.84;87.03;100360.84;5018026;28;20029;-81
2023/07/21 07:04:51;;;;;;;3.58;1.50;;;;;;;16.93;86.29;100362.28;5015166;28;20029;-81
2023/07/21 07:07:18;;;;;;;2.80;1.42;;;;;;;17.08;85.51;100360.78;5018882;28;20045;-82
2023/07/21 07:09:45;;;;;;;1.20;1.20;;;;;;;17.16;85.17;100366.66;5016841;28;20029;-80
2023/07/21 07:12:12;;;;;;;4.63;1.55;;;;;;;17.18;85.33;100370.97;5016470;28;20411;-82
2023/07/21 07:14:39;;;;;;;2.90;1.63;;;;;;;17.25;84.56;100368.03;4997021;28;20488;-82
2023/07/21 07:17:06;;;;;;;3.13;1.80;;;;;;;17.33;83.87;100352.72;5033082;28;20125;-81
2023/07/21 07:19:32;;;;;;;2.70;1.55;;;;;;;17.49;83.35;100351.13;5016291;28;20051;-81
2023/07/21 07:21:59;;;;;;;3.15;1.63;;;;;;;17.74;81.93;100346.56;5034426;28;20385;-81
2023/07/21 07:24:25;;;;;;;1.35;1.25;;;;;;;17.96;80.96;100351.81;5037848;28;20055;-83
2023/07/21 07:26:52;;;;;;;1.90;1.73;;;;;;;18.29;80.38;100351.22;5052256;28;20048;-80
2023/07/21 07:29:20;;;;;;;5.57;2.00;;;;;;;18.73;78.63;100356.22;5035826;28;20044;-80
2023/07/21 07:31:48;;;;;;;2.25;1.65;;;;;;;19.23;77.46;100353.84;5052620;28;20039;-81
2023/07/21 07:34:14;;;;;;;0.98;0.90;;;;;;;19.78;74.97;100356.34;5053946;28;20045;-81
2023/07/21 07:36:42;;;;;;;2.45;1.33;;;;;;;20.27;73.28;100354.69;5036260;28;20033;-81
2023/07/21 07:39:08;;;;;;;1.17;1.08;;;;;;;20.88;71.29;100345.13;5036493;28;20099;-80
2023/07/21 07:41:35;;;;;;;1.98;1.05;;;;;;;21.17;69.62;100353.25;5035599;28;20047;-81
2023/07/21 07:44:01;;;;;;;3.08;1.05;;;;;;;21.25;67.51;100355.47;5035742;28;20032;-80
2023/07/21 07:46:28;;;;;;;1.88;0.88;;;;;;;21.20;67.36;100347.75;5052100;28;20033;-80
2023/07/21 07:48:54;;;;;;;0.68;0.68;;;;;;;21.17;67.58;100355.06;5052331;28;20499;-80
2023/07/21 07:51:21;;;;;;;1.30;0.60;;;;;;;21.40;65.87;100343.91;5036146;28;20472;-80
2023/07/21 07:53:47;;;;;;;0.90;0.90;;;;;;;21.62;65.15;100346.19;5036545;28;20045;-81
2023/07/21 07:56:16;;;;;;;1.10;0.93;;;;;;;22.00;63.12;100342.13;5035678;28;20041;-81
2023/07/21 07:58:43;;;;;;;1.58;0.80;;;;;;;22.33;62.41;100342.78;5036140;28;20037;-82
2023/07/21 08:01:12;;;;;;;1.27;0.80;;;;;;;22.74;60.73;100349.97;5015198;28;20040;-79
2023/07/21 08:03:43;;;;;;;2.53;0.90;;;;;;;23.13;58.96;100343.81;5022124;28;20367;-79
2023/07/21 08:06:14;;;;;;;1.60;0.88;;;;;;;23.51;54.72;100338.72;5019121;28;20044;-79
2023/07/21 08:08:42;;;;;;;2.15;1.20;;;;;;;23.66;55.20;100337.63;5019177;28;20045;-79
2023/07/21 08:11:09;;;;;;;2.33;1.13;;;;;;;24.00;53.79;100339.81;5035868;28;20120;-80
2023/07/21 08:13:36;;;;;;;4.43;1.05;;;;;;;24.31;52.11;100330.44;5035420;28;20051;-81
2023/07/21 08:16:12;;;;;;;1.92;0.68;;;;;;;24.92;48.55;100333.16;5053448;28;20112;-80
2023/07/21 08:21:21;;;;;;;2.60;1.63;;;;;;;25.08;45.96;100330.22;5013792;28;20065;-81
2023/07/21 08:23:50;;;;;;;2.45;1.27;;;;;;;25.23;45.90;100324.66;5026138;28;20041;-80
2023/07/21 08:26:22;;;;;;;1.45;1.42;;;;;;;25.73;43.88;100321.75;5031583;28;20053;-80
2023/07/21 08:28:52;;;;;;;2.25;1.30;;;;;;;25.88;43.37;100317.88;5014266;28;20069;-81
2023/07/21 08:31:19;;;;;;;1.17;1.08;;;;;;;25.60;43.03;100313.81;5032260;28;20041;-80
2023/07/21 08:33:46;;;;;;;0.85;0.85;;;;;;;25.47;43.90;100316.59;5032107;28;20488;-80
2023/07/21 08:36:31;;;;;;;1.95;1.33;;;;;;;25.54;43.54;100311.59;5030575;28;20121;-81
2023/07/21 08:39:02;;;;;;;1.02;0.90;;;;;;;26.03;42.63;100314.94;5031136;28;20041;-81
2023/07/21 08:41:50;;;;;;;1.20;0.95;;;;;;;26.69;41.47;100316.84;4999766;28;20045;-82
2023/07/21 08:44:19;;;;;;;2.17;0.95;;;;;;;27.10;41.08;100319.75;4999140;28;20054;-82
2023/07/21 08:46:49;;;;;;;1.20;1.10;;;;;;;27.60;40.09;100321.81;5006239;28;20126;-81
2023/07/21 08:49:18;;;;;;;1.58;0.85;;;;;;;27.90;38.99;100329.94;5001143;28;20045;-80
2023/07/21 08:51:45;;;;;;;2.70;1.33;;;;;;;27.75;38.69;100317.81;4999908;28;20496;-81
2023/07/21 08:54:11;;;;;;;2.45;1.13;;;;;;;28.04;38.16;100318.00;4999619;28;20380;-81
2023/07/21 08:56:38;;;;;;;1.88;0.55;;;;;;;28.74;37.65;100316.34;5004735;28;20037;-80
2023/07/21 08:59:05;;;;;;;2.03;0.93;;;;;;;28.49;36.48;100323.94;4999975;28;20070;-80
2023/07/21 09:01:32;;;;;;;1.27;0.60;;;;;;;28.29;37.46;100317.63;4999719;28;20682;-81
2023/07/21 09:03:58;;;;;;;5.75;1.02;;;;;;;28.63;35.87;100317.28;5004591;28;20449;-81
2023/07/21 09:06:25;;;;;;;0.90;0.90;;;;;;;27.86;37.63;100308.81;5000002;28;20038;-81
2023/07/21 09:08:57;;;;;;;0.68;0.68;;;;;;;26.87;39.28;100309.97;5013974;28;20048;-81
2023/07/21 09:11:26;;;;;;;;;;;;;;;26.20;39.03;100306.41;5022687;28;20041;-80
2023/07/21 09:13:57;;;;;;;0.80;0.80;;;;;;;25.61;40.45;100309.31;5016688;28;19924;-81
2023/07/21 09:16:24;;;;;;;4.65;1.20;;;;;;;25.75;41.22;100311.78;4999508;28;20045;-80
2023/07/21 09:18:52;;;;;;;2.38;0.95;;;;;;;27.20;39.08;100312.63;5019041;28;20037;-81
2023/07/21 09:21:23;;;;;;;1.80;1.40;;;;;;;28.06;37.45;100307.09;5034039;28;20029;-80
2023/07/21 09:23:51;;;;;;;1.70;1.10;;;;;;;28.91;35.65;100301.34;5019897;28;20042;-81
2023/07/21 09:26:24;;;;;;;1.05;0.95;;;;;;;28.35;35.94;100312.56;5018907;28;20834;-80
2023/07/21 09:28:51;;;;;;;0.80;0.77;;;;;;;28.52;35.92;100299.41;5018582;28;20041;-81
2023/07/21 09:31:17;;;;;;;1.52;0.82;;;;;;;28.22;36.69;100302.06;5018690;28;20055;-80
2023/07/21 09:33:46;;;;;;;1.75;1.00;;;;;;;28.52;36.18;100297.56;5018893;28;20107;-81
2023/07/21 09:36:17;;;;;;;0.80;0.80;;;;;;;29.34;35.08;100297.34;5019039;28;20045;-80
2023/07/21 09:38:45;;;;;;;1.05;1.02;;;;;;;29.30;34.67;100293.25;5018996;28;20041;-80
2023/07/21 09:41:24;;;;;;;3.17;1.27;;;;;;;28.11;36.30;100293.22;5019394;28;20038;-80
2023/07/21 09:43:51;;;;;;;2.28;1.15;;;;;;;27.23;38.41;100298.94;5038339;28;20125;-82
2023/07/21 09:46:18;;;;;;;2.05;1.10;;;;;;;28.25;36.62;100292.81;5038562;28;20091;-81
2023/07/21 09:48:47;;;;;;;1.70;1.60;;;;;;;28.92;35.31;100293.09;5019628;28;20513;-81
2023/07/21 09:51:13;;;;;;;1.00;1.00;;;;;;;28.94;35.83;100298.34;5035564;28;20047;-81
2023/07/21 09:53:42;;;;;;;2.85;1.38;;;;;;;28.56;35.73;100290.06;5038021;28;20044;-80
2023/07/21 09:56:12;;;;;;;1.33;1.27;;;;;;;27.65;36.18;100290.00;5030224;28;20045;-81
2023/07/21 09:59:07;;;;;;;2.03;1.52;;;;;;;28.04;35.35;100283.03;4999825;28;20041;-83
2023/07/21 10:01:37;;;;;;;1.13;1.02;;;;;;;28.93;34.08;100277.78;5004530;28;20045;-81
2023/07/21 10:04:04;;;;;;;0.95;0.93;;;;;;;28.19;35.30;100278.09;5018092;28;20033;-81
2023/07/21 10:06:35;;;;;;;1.05;0.98;;;;;;;27.24;36.42;100284.50;5018215;28;20072;-81
2023/07/21 10:09:09;;;;;;;2.20;0.90;;;;;;;27.99;35.86;100282.53;5019272;28;20037;-81
2023/07/21 10:11:36;;;;;;;3.08;1.13;;;;;;;29.35;33.75;100275.63;5018675;28;20037;-80
2023/07/21 10:14:02;;;;;;;1.27;1.17;;;;;;;31.16;31.62;100276.94;5018074;28;20049;-80
2023/07/21 10:16:31;;;;;;;1.00;1.00;;;;;;;32.38;28.94;100281.50;5018983;28;20045;-80
2023/07/21 10:19:11;;;;;;;2.85;0.95;;;;;;;33.85;27.19;100274.38;5017127;28;20033;-80
2023/07/21 10:21:52;;;;;;;3.00;1.38;;;;;;;33.94;27.31;100269.78;4982703;28;20042;-80
2023/07/21 10:24:26;;;;;;;1.00;0.90;;;;;;;33.62;27.74;100274.25;4998215;28;20076;-82
2023/07/21 10:27:05;;;;;;;1.55;1.00;;;;;;;31.98;29.97;100282.03;4996369;28;20488;-82
2023/07/21 10:29:32;;;;;;;2.25;1.42;;;;;;;29.55;33.50;100278.28;4991300;28;20045;-80
2023/07/21 10:32:01;;;;;;;1.65;1.17;;;;;;;27.96;35.72;100282.78;4997792;28;20041;-80
2023/07/21 10:34:46;;;;;;;1.00;1.00;;;;;;;26.37;38.32;100286.28;5000930;28;20103;-80
2023/07/21 10:37:13;;;;;;;1.02;1.02;;;;;;;25.27;40.01;100281.44;4998097;28;20049;-80
2023/07/21 10:39:42;;;;;;;0.85;0.85;;;;;;;24.60;41.16;100281.97;4998061;28;20042;-81
2023/07/21 10:42:12;;;;;;;1.58;1.20;;;;;;;24.37;42.39;100281.88;4998245;28;20045;-80
2023/07/21 10:44:49;;;;;;;1.38;1.23;;;;;;;24.34;42.34;100282.09;4998157;28;20461;-80
2023/07/21 10:47:19;;;;;;;1.38;0.80;;;;;;;24.31;42.16;100271.59;4998168;28;20045;-80
2023/07/21 10:49:47;;;;;;;2.97;1.40;;;;;;;24.39;41.03;100276.41;5001755;28;20117;-81
2023/07/21 10:52:15;;;;;;;2.63;0.80;;;;;;;24.73;40.71;100268.56;4995895;28;20049;-81
2023/07/21 10:54:42;;;;;;;1.27;1.17;;;;;;;24.82;40.45;100267.03;4947196;28;20046;-80
2023/07/21 10:57:09;;;;;;;1.00;0.85;;;;;;;24.56;40.37;100270.66;4978706;28;20038;-80
2023/07/21 10:59:37;;;;;;;1.35;1.35;;;;;;;24.03;41.54;100272.78;4990509;28;20053;-80
2023/07/21 11:02:06;;;;;;;1.15;1.15;;;;;;;23.57;42.12;100272.34;4997836;28;20042;-80
2023/07/21 11:04:33;;;;;;;1.20;0.98;;;;;;;23.00;43.10;100283.31;4980865;28;20038;-82
2023/07/21 11:07:01;;;;;;;0.90;0.88;;;;;;;22.62;44.04;100282.28;4997589;28;20049;-81
2023/07/21 11:09:33;;;;;;;1.95;1.08;;;;;;;22.39;44.61;100281.94;4997744;28;20583;-80
2023/07/21 11:12:10;;;;;;;1.03;1.00;;;;;;;22.27;44.97;100288.03;4997810;28;20392;-81
2023/07/21 11:14:37;;;;;;;2.30;1.02;;;;;;;22.10;46.03;100289.13;4982849;28;20496;-81
2023/07/21 11:17:05;;;;;;;1.35;1.25;;;;;;;21.81;48.76;100286.44;4997285;28;20113;-80
2023/07/21 11:19:34;;;;;;;3.53;1.38;;;;;;;21.48;50.23;100288.41;4990125;28;20060;-82
2023/07/21 11:22:01;;;;;;;2.65;1.73;;;;;;;21.15;51.59;100284.13;4996671;28;20034;-83
2023/07/21 11:24:30;;;;;;;3.10;1.90;;;;;;;21.04;51.93;100291.91;5023381;28;20466;-82
2023/07/21 11:27:07;;;;;;;1.42;1.33;;;;;;;21.08;50.58;100281.91;4992542;28;20050;-86
2023/07/21 11:29:41;;;;;;;1.40;1.33;;;;;;;21.09;49.64;100281.84;4993049;28;20041;-82
2023/07/21 11:32:22;;;;;;;2.92;1.40;;;;;;;21.18;51.25;100287.56;4976666;28;20527;-81